createdAt,value
2019-02-19T00:00:46.169Z,58.38
2019-02-19T00:03:13.576Z,58.59
2019-02-19T00:05:41.010Z,58.79
2019-02-19T00:08:08.413Z,58.88
2019-02-19T00:10:36.008Z,58.91
2019-02-19T00:13:03.393Z,58.96
2019-02-19T00:15:30.803Z,58.98
2019-02-19T00:17:58.219Z,59.07
2019-02-19T00:20:25.629Z,59.25
2019-02-19T00:22:53.114Z,59.25
2019-02-19T00:25:20.528Z,59.25
2019-02-19T00:27:48.204Z,59.19
2019-02-19T00:30:15.584Z,59.12
2019-02-19T00:32:42.990Z,59.19
2019-02-19T00:35:10.387Z,58.98
2019-02-19T00:37:37.805Z,59.03
2019-02-19T00:40:05.246Z,59.38
2019-02-19T00:42:32.662Z,59.67
2019-02-19T00:45:00.097Z,59.70
2019-02-19T00:47:27.529Z,59.38
2019-02-19T00:49:54.914Z,59.23
2019-02-19T00:52:22.319Z,59.34
2019-02-19T00:54:49.714Z,59.47
2019-02-19T00:57:17.784Z,59.35
2019-02-19T00:59:45.194Z,59.25
2019-02-19T01:02:12.688Z,59.04
2019-02-19T01:04:40.147Z,58.95
2019-02-19T01:07:07.559Z,58.92
2019-02-19T01:09:35.080Z,58.90
2019-02-19T01:12:02.728Z,58.99
2019-02-19T01:14:30.098Z,59.35
2019-02-19T01:16:57.495Z,59.88
2019-02-19T01:19:24.904Z,60.46
2019-02-19T01:21:52.314Z,60.76
2019-02-19T01:24:19.802Z,60.88
2019-02-19T01:26:47.175Z,60.84
2019-02-19T01:29:14.614Z,60.88
2019-02-19T01:31:41.995Z,61.00
2019-02-19T01:34:09.547Z,60.97
2019-02-19T01:36:37.034Z,60.98
2019-02-19T01:39:04.729Z,61.31
2019-02-19T01:41:32.414Z,61.44
2019-02-19T01:43:59.807Z,61.44
2019-02-19T01:46:27.227Z,61.37
2019-02-19T01:48:54.626Z,61.41
2019-02-19T01:51:22.038Z,61.59
2019-02-19T01:53:49.430Z,61.78
2019-02-19T01:56:16.831Z,61.89
2019-02-19T01:58:44.225Z,62.10
2019-02-19T02:01:11.658Z,62.15
2019-02-19T02:03:39.116Z,62.12
2019-02-19T02:06:06.502Z,62.12
2019-02-19T02:08:34.244Z,62.27
2019-02-19T02:11:01.661Z,62.49
2019-02-19T02:13:29.112Z,63.05
2019-02-19T02:15:56.506Z,63.34
2019-02-19T02:18:23.907Z,63.23
2019-02-19T02:20:51.330Z,63.25
2019-02-19T02:23:18.714Z,63.03
2019-02-19T02:25:46.247Z,62.79
2019-02-19T02:28:13.631Z,62.54
2019-02-19T02:30:41.058Z,62.77
2019-02-19T02:33:08.629Z,62.66
2019-02-19T02:35:36.003Z,62.75
2019-02-19T02:38:03.623Z,62.88
2019-02-19T02:40:31.008Z,63.02
2019-02-19T02:42:58.408Z,63.00
2019-02-19T02:45:25.864Z,63.18
2019-02-19T02:47:53.262Z,63.32
2019-02-19T02:50:20.714Z,63.74
2019-02-19T02:52:48.136Z,64.07
2019-02-19T02:55:15.546Z,64.32
2019-02-19T02:57:42.967Z,64.57
2019-02-19T03:00:10.441Z,64.93
2019-02-19T03:02:37.966Z,65.05
2019-02-19T03:05:05.363Z,65.01
2019-02-19T03:07:33.693Z,64.73
2019-02-19T03:10:01.159Z,64.42
2019-02-19T03:12:28.657Z,64.51
2019-02-19T03:14:56.115Z,65.02
2019-02-19T03:17:24.627Z,65.25
2019-02-19T03:19:52.051Z,65.13
2019-02-19T03:22:19.601Z,64.77
2019-02-19T03:24:47.010Z,65.40
2019-02-19T03:27:14.464Z,65.86
2019-02-19T03:29:41.864Z,66.12
2019-02-19T03:32:09.264Z,65.79
2019-02-19T03:34:36.674Z,65.75
2019-02-19T03:37:04.205Z,65.62
2019-02-19T03:39:31.615Z,65.35
2019-02-19T03:41:59.019Z,65.23
2019-02-19T03:44:26.421Z,65.38
2019-02-19T03:46:53.840Z,65.08
2019-02-19T03:49:21.277Z,65.14
2019-02-19T03:51:48.746Z,65.37
2019-02-19T03:54:16.183Z,65.44
2019-02-19T03:56:43.967Z,65.32
2019-02-19T03:59:11.370Z,65.27
2019-02-19T04:01:38.754Z,65.21
2019-02-19T04:04:06.174Z,65.13
2019-02-19T04:06:33.610Z,65.60
2019-02-19T04:09:01.082Z,65.76
2019-02-19T04:11:28.498Z,65.46
2019-02-19T04:13:55.907Z,65.45
2019-02-19T04:16:23.463Z,66.12
2019-02-19T04:18:50.927Z,67.00
2019-02-19T04:21:18.380Z,66.58
2019-02-19T04:23:45.818Z,65.99
2019-02-19T04:26:14.078Z,65.70
2019-02-19T04:28:40.668Z,65.62
2019-02-19T04:31:08.089Z,65.75
2019-02-19T04:33:35.519Z,65.84
2019-02-19T04:36:02.919Z,65.73
2019-02-19T04:38:30.331Z,66.00
2019-02-19T04:40:57.843Z,66.36
2019-02-19T04:43:25.265Z,66.88
2019-02-19T04:45:52.695Z,66.95
2019-02-19T04:48:20.143Z,66.90
2019-02-19T04:50:47.579Z,66.93
2019-02-19T04:53:14.973Z,66.85
2019-02-19T04:55:42.396Z,66.69
2019-02-19T04:58:09.831Z,66.62
2019-02-19T05:00:37.282Z,66.69
2019-02-19T05:03:04.733Z,66.90
2019-02-19T05:05:32.208Z,67.16
2019-02-19T05:07:59.599Z,67.26
2019-02-19T05:10:27.123Z,67.46
2019-02-19T05:12:54.544Z,67.42
2019-02-19T05:15:21.931Z,67.87
2019-02-19T05:17:49.972Z,67.53
2019-02-19T05:20:17.367Z,67.36
2019-02-19T05:22:44.771Z,67.36
2019-02-19T05:25:12.271Z,67.79
2019-02-19T05:27:39.704Z,67.57
2019-02-19T05:30:07.183Z,67.27
2019-02-19T05:32:34.793Z,66.94
2019-02-19T05:35:02.293Z,66.84
2019-02-19T05:37:29.838Z,67.03
2019-02-19T05:39:57.229Z,67.16
2019-02-19T05:42:24.634Z,67.26
2019-02-19T05:44:52.797Z,67.38
2019-02-19T05:47:20.405Z,67.41
2019-02-19T05:49:47.855Z,67.69
2019-02-19T05:52:15.827Z,68.06
2019-02-19T05:54:43.225Z,67.90
2019-02-19T05:57:10.665Z,67.75
2019-02-19T05:59:38.108Z,67.91
2019-02-19T06:02:05.534Z,67.97
2019-02-19T06:04:32.929Z,67.93
2019-02-19T06:07:00.371Z,68.17
2019-02-19T06:09:28.012Z,68.59
2019-02-19T06:11:55.444Z,68.91
2019-02-19T06:14:22.854Z,69.20
2019-02-19T06:16:58.089Z,69.44
2019-02-19T06:19:17.663Z,69.56
2019-02-19T06:21:45.063Z,69.84
2019-02-19T06:24:12.790Z,69.85
2019-02-19T06:26:40.348Z,69.83
2019-02-19T06:29:07.821Z,69.93
2019-02-19T06:31:35.214Z,69.98
2019-02-19T06:34:02.651Z,69.95
2019-02-19T06:36:30.888Z,69.84
2019-02-19T06:38:58.541Z,69.79
2019-02-19T06:41:25.982Z,69.67
2019-02-19T06:43:53.387Z,69.71
2019-02-19T06:46:20.840Z,70.00
2019-02-19T06:48:48.268Z,69.94
2019-02-19T06:51:15.678Z,69.63
2019-02-19T06:53:43.094Z,69.17
2019-02-19T06:56:10.529Z,67.40
2019-02-19T06:58:37.993Z,66.39
2019-02-19T07:01:05.394Z,65.07
2019-02-19T07:03:38.548Z,64.48
2019-02-19T07:06:06.788Z,63.99
2019-02-19T07:08:34.304Z,62.16
2019-02-19T07:11:01.783Z,60.71
2019-02-19T07:13:29.194Z,59.77
2019-02-19T07:15:56.647Z,59.22
2019-02-19T07:18:24.816Z,57.70
2019-02-19T07:20:52.251Z,56.36
2019-02-19T07:23:19.696Z,55.74
2019-02-19T07:25:47.297Z,54.85
2019-02-19T07:28:14.857Z,54.46
2019-02-19T07:30:42.260Z,54.75
2019-02-19T07:33:09.854Z,53.81
2019-02-19T07:35:37.292Z,52.54
2019-02-19T07:38:04.747Z,51.37
2019-02-19T07:40:32.201Z,51.02
2019-02-19T07:42:59.720Z,50.26
2019-02-19T07:45:27.154Z,49.17
2019-02-19T07:47:54.560Z,48.46
2019-02-19T07:50:21.976Z,47.54
2019-02-19T07:52:49.574Z,47.58
2019-02-19T07:55:17.058Z,46.99
2019-02-19T07:57:44.458Z,46.81
2019-02-19T08:00:11.897Z,47.41
2019-02-19T08:02:39.328Z,47.04
2019-02-19T08:05:06.786Z,45.74
2019-02-19T08:07:34.305Z,45.29
2019-02-19T08:10:01.765Z,46.94
2019-02-19T08:12:29.172Z,48.65
2019-02-19T08:14:56.579Z,48.46
2019-02-19T08:17:24.032Z,47.12
2019-02-19T08:19:51.468Z,45.59
2019-02-19T08:22:18.864Z,44.31
2019-02-19T08:24:46.488Z,43.96
2019-02-19T08:27:13.931Z,42.90
2019-02-19T08:29:41.327Z,42.05
2019-02-19T08:32:08.805Z,41.31
2019-02-19T08:34:37.962Z,40.79
2019-02-19T08:37:05.351Z,40.31
2019-02-19T08:39:32.771Z,39.41
2019-02-19T08:42:00.181Z,38.37
2019-02-19T08:44:28.094Z,38.39
2019-02-19T08:46:55.606Z,37.82
2019-02-19T08:49:23.032Z,37.17
2019-02-19T08:51:56.106Z,36.82
2019-02-19T08:54:19.240Z,37.29
2019-02-19T08:56:46.753Z,38.59
2019-02-19T08:59:15.098Z,39.43
2019-02-19T09:01:42.501Z,40.01
2019-02-19T09:04:09.912Z,39.10
2019-02-19T09:06:37.343Z,38.48
2019-02-19T09:09:04.790Z,37.83
2019-02-19T09:11:32.269Z,37.59
2019-02-19T09:13:59.735Z,37.80
2019-02-19T09:16:27.250Z,39.72
2019-02-19T09:18:54.700Z,39.54
2019-02-19T09:21:22.383Z,38.81
2019-02-19T09:23:50.570Z,37.68
2019-02-19T09:26:17.990Z,37.77
2019-02-19T09:28:45.399Z,37.23
2019-02-19T09:31:12.840Z,36.15
2019-02-19T09:33:40.952Z,35.61
2019-02-19T09:36:08.389Z,35.17
2019-02-19T09:38:35.791Z,34.73
2019-02-19T09:41:03.394Z,34.10
2019-02-19T09:43:35.538Z,34.25
2019-02-19T09:45:59.062Z,33.43
2019-02-19T09:48:26.180Z,32.94
2019-02-19T09:50:53.590Z,33.03
2019-02-19T09:53:21.035Z,33.31
2019-02-19T09:55:48.650Z,33.09
2019-02-19T09:58:16.964Z,32.96
2019-02-19T10:00:44.395Z,32.65
2019-02-19T10:03:11.963Z,32.42
2019-02-19T10:05:39.395Z,32.08
2019-02-19T10:08:06.852Z,31.83
2019-02-19T10:10:34.341Z,31.81
2019-02-19T10:13:01.792Z,31.85
2019-02-19T10:15:29.225Z,32.14
2019-02-19T10:17:56.630Z,32.17
2019-02-19T10:20:24.224Z,31.66
2019-02-19T10:22:51.683Z,31.12
2019-02-19T10:25:19.111Z,30.83
2019-02-19T10:27:46.497Z,30.57
2019-02-19T10:30:17.548Z,30.36
2019-02-19T10:32:45.035Z,30.49
2019-02-19T10:35:12.533Z,30.50
2019-02-19T10:37:39.951Z,30.87
2019-02-19T10:40:09.846Z,31.04
2019-02-19T10:42:37.508Z,31.23
2019-02-19T10:45:04.926Z,31.17
2019-02-19T10:47:32.885Z,31.11
2019-02-19T10:50:00.389Z,31.58
2019-02-19T10:52:27.832Z,31.68
2019-02-19T10:54:55.247Z,31.10
2019-02-19T10:57:22.651Z,31.61
2019-02-19T10:59:50.116Z,31.64
2019-02-19T11:02:17.900Z,31.75
2019-02-19T11:04:45.352Z,31.09
2019-02-19T11:07:12.807Z,30.71
2019-02-19T11:09:40.252Z,30.72
2019-02-19T11:12:07.825Z,31.15
2019-02-19T11:14:35.353Z,30.73
2019-02-19T11:17:02.872Z,30.54
2019-02-19T11:19:29.822Z,30.68
2019-02-19T11:21:57.267Z,30.16
2019-02-19T11:24:24.790Z,29.37
2019-02-19T11:26:51.753Z,28.92
2019-02-19T11:29:18.694Z,28.52
2019-02-19T11:31:45.654Z,28.19
2019-02-19T11:34:13.047Z,27.59
2019-02-19T11:36:39.986Z,27.58
2019-02-19T11:39:07.042Z,27.27
2019-02-19T11:41:34.009Z,27.07
2019-02-19T11:44:00.945Z,26.58
2019-02-19T11:46:27.942Z,26.26
2019-02-19T11:48:56.188Z,25.83
2019-02-19T11:51:22.018Z,25.13
2019-02-19T11:53:48.974Z,24.65
2019-02-19T11:56:16.407Z,24.46
2019-02-19T11:58:43.798Z,24.34
2019-02-19T12:01:11.241Z,24.96
2019-02-19T12:03:38.811Z,24.93
2019-02-19T12:06:06.455Z,24.41
2019-02-19T12:08:39.104Z,24.17
2019-02-19T12:11:01.413Z,23.88
2019-02-19T12:13:28.848Z,23.53
2019-02-19T12:15:56.849Z,23.43
2019-02-19T12:18:24.304Z,23.00
2019-02-19T12:20:51.757Z,22.89
2019-02-19T12:23:19.366Z,23.31
2019-02-19T12:25:46.865Z,23.53
2019-02-19T12:28:14.312Z,23.74
2019-02-19T12:30:41.829Z,23.71
2019-02-19T12:33:09.264Z,23.43
2019-02-19T12:35:36.792Z,22.77
2019-02-19T12:38:04.404Z,22.45
2019-02-19T12:40:31.891Z,22.91
2019-02-19T12:42:59.351Z,23.45
2019-02-19T12:45:26.783Z,23.73
2019-02-19T12:47:54.292Z,23.93
2019-02-19T12:50:21.725Z,24.17
2019-02-19T12:52:49.379Z,24.52
2019-02-19T12:55:16.859Z,24.67
2019-02-19T12:57:44.497Z,24.66
2019-02-19T13:00:13.695Z,24.98
2019-02-19T13:02:41.174Z,24.75
2019-02-19T13:05:08.626Z,24.48
2019-02-19T13:07:36.966Z,23.66
2019-02-19T13:10:03.510Z,23.46
2019-02-19T13:12:30.962Z,24.33
2019-02-19T13:14:58.426Z,24.52
2019-02-19T13:17:26.077Z,24.38
2019-02-19T13:19:53.503Z,23.83
2019-02-19T13:22:21.126Z,23.46
2019-02-19T13:24:48.657Z,23.42
2019-02-19T13:27:16.094Z,23.22
2019-02-19T13:29:43.507Z,22.18
2019-02-19T13:32:10.984Z,21.37
2019-02-19T13:34:38.391Z,20.89
2019-02-19T13:37:05.344Z,20.10
2019-02-19T13:39:32.330Z,19.94
2019-02-19T13:41:59.343Z,19.64
2019-02-19T13:44:26.404Z,19.45
2019-02-19T13:46:53.374Z,18.88
2019-02-19T13:49:20.834Z,18.82
2019-02-19T13:51:48.350Z,18.91
2019-02-19T13:54:15.771Z,19.11
2019-02-19T13:56:43.262Z,19.51
2019-02-19T13:59:10.670Z,19.45
2019-02-19T14:01:38.180Z,19.14
2019-02-19T14:04:05.627Z,18.32
2019-02-19T14:06:33.097Z,17.72
2019-02-19T14:09:00.621Z,18.34
2019-02-19T14:11:28.045Z,19.37
2019-02-19T14:13:56.053Z,19.88
2019-02-19T14:16:23.815Z,19.71
2019-02-19T14:18:52.968Z,19.12
2019-02-19T14:21:28.914Z,18.98
2019-02-19T14:24:01.996Z,19.17
2019-02-19T14:26:30.259Z,19.10
2019-02-19T14:29:01.663Z,19.05
2019-02-19T14:31:29.113Z,19.27
2019-02-19T14:34:02.021Z,19.36
2019-02-19T14:36:48.264Z,19.03
2019-02-19T14:42:27.517Z,19.02
2019-02-19T14:44:55.777Z,18.66
2019-02-19T14:47:28.238Z,18.37
2019-02-19T14:49:57.678Z,17.79
2019-02-19T14:52:25.211Z,17.11
2019-02-19T14:57:50.648Z,15.68
2019-02-19T15:03:29.067Z,15.65
2019-02-19T15:06:03.990Z,15.51
2019-02-19T15:08:39.873Z,15.52
2019-02-19T15:11:09.734Z,16.12
2019-02-19T15:13:41.591Z,16.23
2019-02-19T15:19:20.032Z,16.65
2019-02-19T15:21:51.594Z,16.03
2019-02-19T15:24:24.684Z,15.99
2019-02-19T15:29:55.931Z,17.28
2019-02-19T15:32:23.382Z,17.61
2019-02-19T15:35:05.853Z,17.82
2019-02-19T15:37:39.809Z,17.95
2019-02-19T15:43:04.776Z,18.19
2019-02-19T15:45:37.878Z,18.34
2019-02-19T15:48:11.637Z,18.96
2019-02-19T15:50:44.803Z,19.45
2019-02-19T15:53:17.864Z,19.73
2019-02-19T15:55:48.956Z,20.03
2019-02-19T16:01:14.497Z,21.53
2019-02-19T16:03:42.497Z,22.44
2019-02-19T16:09:06.036Z,23.71
2019-02-19T16:11:34.002Z,23.80
2019-02-19T16:14:07.882Z,24.28
2019-02-19T16:16:38.280Z,24.73
2019-02-19T16:19:08.159Z,25.30
2019-02-19T16:21:39.538Z,25.85
2019-02-19T16:24:07.840Z,26.44
2019-02-19T16:26:50.785Z,27.46
2019-02-19T16:29:31.017Z,28.87
2019-02-19T16:35:00.353Z,31.53
2019-02-19T16:37:33.318Z,32.44
2019-02-19T16:40:02.905Z,34.23
2019-02-19T16:42:30.587Z,35.62
2019-02-19T16:45:03.655Z,36.78
2019-02-19T16:47:33.112Z,37.08
2019-02-19T16:50:15.674Z,37.38
2019-02-19T16:52:43.913Z,38.00
2019-02-19T16:55:11.775Z,38.47
2019-02-19T16:57:51.939Z,38.84
2019-02-19T17:00:21.858Z,40.02
2019-02-19T17:02:59.216Z,40.90
2019-02-19T17:05:28.495Z,41.72
2019-02-19T17:07:57.284Z,42.03
2019-02-19T17:13:22.494Z,43.65
2019-02-19T17:15:49.902Z,43.53
2019-02-19T17:18:23.055Z,43.51
2019-02-19T17:20:49.594Z,43.83
2019-02-19T17:23:21.491Z,44.17
2019-02-19T17:25:52.447Z,44.82
2019-02-19T17:28:22.949Z,45.42
2019-02-19T17:30:53.963Z,45.57
2019-02-19T17:33:24.262Z,46.11
2019-02-19T17:35:54.231Z,46.78
2019-02-19T17:38:22.486Z,47.44
2019-02-19T17:40:51.293Z,48.08
2019-02-19T17:43:21.852Z,48.70
2019-02-19T17:45:59.995Z,49.23
2019-02-19T17:48:31.157Z,49.37
2019-02-19T17:51:17.368Z,49.52
2019-02-19T17:56:39.331Z,50.06
2019-02-19T17:59:13.318Z,49.71
2019-02-19T18:01:46.430Z,49.90
2019-02-19T18:04:29.531Z,50.03
2019-02-19T18:07:16.882Z,50.32
2019-02-19T18:09:48.373Z,50.67
2019-02-19T18:12:20.407Z,51.13
2019-02-19T18:14:48.708Z,51.50
2019-02-19T18:17:27.813Z,51.52
2019-02-19T18:19:55.335Z,51.49
2019-02-19T18:22:22.782Z,51.55
2019-02-19T18:24:50.244Z,51.54
2019-02-19T18:27:17.765Z,51.69
2019-02-19T18:29:45.223Z,52.06
2019-02-19T18:32:12.799Z,52.22
2019-02-19T18:34:40.229Z,52.46
2019-02-19T18:37:07.735Z,52.43
2019-02-19T18:39:35.138Z,52.49
2019-02-19T18:42:02.577Z,52.65
2019-02-19T18:44:29.954Z,52.57
2019-02-19T18:46:57.379Z,52.53
2019-02-19T18:49:24.815Z,52.83
2019-02-19T18:51:52.274Z,53.19
2019-02-19T18:54:19.733Z,53.58
2019-02-19T18:56:47.139Z,53.94
2019-02-19T18:59:14.530Z,54.33
2019-02-19T19:01:42.012Z,54.58
2019-02-19T19:04:09.611Z,54.81
2019-02-19T19:06:37.050Z,55.01
2019-02-19T19:09:04.485Z,55.17
2019-02-19T19:11:31.911Z,55.61
2019-02-19T19:13:59.311Z,55.89
2019-02-19T19:16:26.734Z,56.13
2019-02-19T19:18:54.114Z,56.29
2019-02-19T19:21:21.532Z,56.38
2019-02-19T19:23:48.934Z,56.54
2019-02-19T19:26:16.394Z,56.56
2019-02-19T19:28:43.763Z,56.57
2019-02-19T19:31:11.168Z,56.71
2019-02-19T19:33:38.580Z,56.93
2019-02-19T19:36:06.026Z,57.17
2019-02-19T19:38:33.415Z,57.55
2019-02-19T19:41:00.824Z,57.97
2019-02-19T19:43:28.367Z,58.35
2019-02-19T19:45:55.777Z,58.33
2019-02-19T19:48:23.354Z,58.04
2019-02-19T19:50:50.841Z,57.95
2019-02-19T19:53:18.299Z,57.96
2019-02-19T19:55:45.820Z,57.99
2019-02-19T19:58:13.423Z,58.11
2019-02-19T20:00:40.860Z,58.17
2019-02-19T20:03:08.287Z,58.49
2019-02-19T20:05:36.459Z,58.72
2019-02-19T20:08:03.975Z,59.08
2019-02-19T20:10:32.536Z,59.44
2019-02-19T20:12:58.941Z,59.58
2019-02-19T20:15:26.437Z,59.92
2019-02-19T20:17:53.898Z,60.27
2019-02-19T20:20:21.356Z,60.24
2019-02-19T20:22:48.780Z,60.18
2019-02-19T20:25:16.184Z,60.17
2019-02-19T20:27:43.583Z,60.26
2019-02-19T20:30:11.040Z,60.02
2019-02-19T20:32:38.799Z,59.95
2019-02-19T20:35:06.305Z,60.45
2019-02-19T20:37:33.725Z,60.68
2019-02-19T20:40:01.145Z,60.50
2019-02-19T20:42:28.542Z,60.33
2019-02-19T20:44:55.961Z,60.30
2019-02-19T20:47:23.391Z,60.24
2019-02-19T20:49:50.783Z,60.25
2019-02-19T20:52:18.190Z,60.10
2019-02-19T20:54:45.628Z,59.88
2019-02-19T20:57:13.204Z,59.96
2019-02-19T20:59:40.624Z,60.06
2019-02-19T21:02:08.152Z,60.12
2019-02-19T21:04:35.554Z,60.29
2019-02-19T21:07:03.007Z,60.27
2019-02-19T21:09:30.444Z,60.38
2019-02-19T21:11:57.900Z,60.57
2019-02-19T21:14:25.487Z,60.68
2019-02-19T21:16:52.905Z,60.80
2019-02-19T21:19:20.324Z,60.65
2019-02-19T21:21:47.722Z,60.64
2019-02-19T21:24:15.135Z,60.84
2019-02-19T21:26:42.533Z,61.00
2019-02-19T21:29:09.943Z,60.99
2019-02-19T21:31:37.960Z,61.06
2019-02-19T21:34:05.433Z,61.17
2019-02-19T21:36:32.843Z,61.30
2019-02-19T21:39:00.247Z,60.96
2019-02-19T21:41:27.705Z,61.38
2019-02-19T21:43:55.115Z,61.40
2019-02-19T21:46:22.548Z,61.33
2019-02-19T21:48:49.951Z,61.32
2019-02-19T21:51:17.420Z,61.29
2019-02-19T21:53:44.956Z,61.10
2019-02-19T21:56:12.820Z,60.74
2019-02-19T21:58:40.305Z,60.78
2019-02-19T22:01:07.950Z,60.58
2019-02-19T22:03:35.499Z,60.42
2019-02-19T22:06:02.941Z,60.23
2019-02-19T22:08:30.369Z,60.25
2019-02-19T22:10:57.861Z,60.03
2019-02-19T22:13:25.416Z,59.94
2019-02-19T22:15:52.898Z,60.15
2019-02-19T22:18:20.311Z,60.82
2019-02-19T22:20:48.614Z,61.21
2019-02-19T22:23:16.023Z,61.51
2019-02-19T22:25:43.423Z,61.69
2019-02-19T22:28:10.881Z,61.64
2019-02-19T22:30:38.284Z,61.75
2019-02-19T22:33:05.689Z,61.87
2019-02-19T22:35:33.113Z,61.89
2019-02-19T22:38:00.538Z,62.17
2019-02-19T22:40:28.015Z,62.41
2019-02-19T22:42:55.470Z,62.58
2019-02-19T22:45:22.997Z,62.68
2019-02-19T22:47:53.358Z,62.83
2019-02-19T22:50:17.813Z,63.02
2019-02-19T22:52:45.243Z,63.15
2019-02-19T22:55:14.169Z,62.99
2019-02-19T22:57:41.578Z,63.05
2019-02-19T23:00:15.734Z,62.65
2019-02-19T23:02:43.376Z,62.44
2019-02-19T23:05:10.807Z,62.09
2019-02-19T23:07:38.416Z,61.96
2019-02-19T23:10:05.824Z,61.82
2019-02-19T23:12:33.219Z,61.71
2019-02-19T23:15:00.636Z,61.30
2019-02-19T23:17:28.090Z,61.02
2019-02-19T23:19:55.653Z,61.08
2019-02-19T23:22:23.177Z,60.91
2019-02-19T23:24:50.594Z,60.88
2019-02-19T23:27:18.018Z,61.29
2019-02-19T23:29:45.462Z,61.61
2019-02-19T23:32:12.921Z,61.95
2019-02-19T23:34:41.333Z,62.19
2019-02-19T23:37:08.773Z,62.75
2019-02-19T23:39:43.393Z,63.19
2019-02-19T23:42:03.919Z,63.66
2019-02-19T23:44:31.376Z,64.05
2019-02-19T23:46:58.840Z,64.24
2019-02-19T23:49:26.256Z,64.24
2019-02-19T23:51:53.653Z,64.44
2019-02-19T23:54:21.148Z,64.49
2019-02-19T23:56:49.050Z,64.44
2019-02-19T23:59:16.570Z,64.52
